createdAt,value
2022-10-15T00:01:19.081Z,2.60
2022-10-15T00:03:45.962Z,3.25
2022-10-15T00:06:13.910Z,1.23
2022-10-15T00:08:40.750Z,2.20
2022-10-15T00:11:09.220Z,1.00
2022-10-15T00:13:36.203Z,1.25
2022-10-15T00:16:02.721Z,2.25
2022-10-15T00:18:29.465Z,1.13
2022-10-15T00:20:56.042Z,1.55
2022-10-15T00:23:22.488Z,4.50
2022-10-15T00:25:48.976Z,3.47
2022-10-15T00:28:15.486Z,1.40
2022-10-15T00:30:41.943Z,1.23
2022-10-15T00:33:08.384Z,2.35
2022-10-15T00:35:34.907Z,1.65
2022-10-15T00:38:01.352Z,1.67
2022-10-15T00:40:27.774Z,1.83
2022-10-15T00:42:54.322Z,1.10
2022-10-15T00:45:20.934Z,1.02
2022-10-15T00:47:51.667Z,1.00
2022-10-15T00:50:23.648Z,1.48
2022-10-15T00:52:50.125Z,2.65
2022-10-15T00:55:27.167Z,1.58
2022-10-15T00:57:53.894Z,2.15
2022-10-15T01:00:20.458Z,3.50
2022-10-15T01:02:46.939Z,2.55
2022-10-15T01:05:15.314Z,3.15
2022-10-15T01:07:41.800Z,2.05
2022-10-15T01:10:10.115Z,2.88
2022-10-15T01:12:46.035Z,2.45
2022-10-15T01:15:12.514Z,4.90
2022-10-15T01:17:41.732Z,2.13
2022-10-15T01:20:10.965Z,2.65
2022-10-15T01:22:40.660Z,4.15
2022-10-15T01:25:22.168Z,3.60
2022-10-15T01:28:03.800Z,1.80
2022-10-15T01:30:42.006Z,2.33
2022-10-15T01:33:18.892Z,2.50
2022-10-15T01:35:48.512Z,5.70
2022-10-15T01:38:33.519Z,4.53
2022-10-15T01:41:03.162Z,3.00
2022-10-15T01:43:39.087Z,3.35
2022-10-15T01:46:16.023Z,1.88
2022-10-15T01:48:43.137Z,2.88
2022-10-15T01:51:10.783Z,3.83
2022-10-15T01:53:38.183Z,2.00
2022-10-15T01:56:07.958Z,2.33
2022-10-15T01:58:35.638Z,3.17
2022-10-15T02:01:02.180Z,1.80
2022-10-15T02:03:28.754Z,2.35
2022-10-15T02:06:05.875Z,2.67
2022-10-15T02:08:38.587Z,2.08
2022-10-15T02:11:12.774Z,3.28
2022-10-15T02:13:48.474Z,2.20
2022-10-15T02:16:14.887Z,1.95
2022-10-15T02:18:41.424Z,5.43
2022-10-15T02:21:12.387Z,1.90
2022-10-15T02:23:45.428Z,2.55
2022-10-15T02:26:12.396Z,1.90
2022-10-15T02:28:41.410Z,2.80
2022-10-15T02:31:08.618Z,2.08
2022-10-15T02:33:35.813Z,3.40
2022-10-15T02:36:02.322Z,3.45
2022-10-15T02:38:31.305Z,4.28
2022-10-15T02:40:57.942Z,1.50
2022-10-15T02:43:24.486Z,2.15
2022-10-15T02:45:50.954Z,1.88
2022-10-15T02:48:17.551Z,2.08
2022-10-15T02:50:44.080Z,3.33
2022-10-15T02:53:10.566Z,2.25
2022-10-15T02:55:37.010Z,2.08
2022-10-15T02:58:03.516Z,1.80
2022-10-15T03:00:29.968Z,4.07
2022-10-15T03:02:56.435Z,3.35
2022-10-15T03:05:23.218Z,2.17
2022-10-15T03:07:49.760Z,3.85
2022-10-15T03:10:16.350Z,2.95
2022-10-15T03:12:42.809Z,2.17
2022-10-15T03:15:09.449Z,2.28
2022-10-15T03:17:35.966Z,1.70
2022-10-15T03:20:02.485Z,1.45
2022-10-15T03:22:28.955Z,2.55
2022-10-15T03:24:55.479Z,2.75
2022-10-15T03:27:22.118Z,1.98
2022-10-15T03:29:48.876Z,2.78
2022-10-15T03:32:15.335Z,5.57
2022-10-15T03:34:42.132Z,2.28
2022-10-15T03:37:08.599Z,2.53
2022-10-15T03:39:35.121Z,2.67
2022-10-15T03:42:01.659Z,3.78
2022-10-15T03:44:28.117Z,1.90
2022-10-15T03:46:54.611Z,2.83
2022-10-15T03:49:21.140Z,2.70
2022-10-15T03:51:47.611Z,2.35
2022-10-15T03:54:14.087Z,3.17
2022-10-15T03:56:40.543Z,4.85
2022-10-15T03:59:07.010Z,3.35
2022-10-15T04:01:33.608Z,3.83
2022-10-15T04:04:00.042Z,2.80
2022-10-15T04:06:26.494Z,3.38
2022-10-15T04:11:24.303Z,3.97
2022-10-15T04:13:50.836Z,4.90
2022-10-15T04:16:17.479Z,4.38
2022-10-15T04:18:43.968Z,4.78
2022-10-15T04:21:11.548Z,4.75
2022-10-15T04:23:38.163Z,4.95
2022-10-15T04:26:04.714Z,4.13
2022-10-15T04:28:31.275Z,3.90
2022-10-15T04:30:58.438Z,4.38
2022-10-15T04:33:25.366Z,5.00
2022-10-15T04:36:03.470Z,4.40
2022-10-15T04:38:30.519Z,4.82
2022-10-15T04:41:00.790Z,4.30
2022-10-15T04:43:27.854Z,7.47
2022-10-15T04:45:57.868Z,7.78
2022-10-15T04:48:24.498Z,4.78
2022-10-15T04:50:51.004Z,5.47
2022-10-15T04:53:17.444Z,4.07
2022-10-15T04:55:43.902Z,3.97
2022-10-15T04:58:10.656Z,3.47
2022-10-15T05:00:38.278Z,3.42
2022-10-15T05:03:07.951Z,4.50
2022-10-15T05:05:34.505Z,7.15
2022-10-15T05:08:01.572Z,5.90
2022-10-15T05:10:28.319Z,6.00
2022-10-15T05:12:56.716Z,4.60
2022-10-15T05:15:25.224Z,3.78
2022-10-15T05:17:51.666Z,4.30
2022-10-15T05:20:18.167Z,4.78
2022-10-15T05:22:44.579Z,4.63
2022-10-15T05:25:11.089Z,7.38
2022-10-15T05:27:37.592Z,5.15
2022-10-15T05:30:04.712Z,5.10
2022-10-15T05:32:31.179Z,5.53
2022-10-15T05:34:57.791Z,4.93
2022-10-15T05:37:24.561Z,4.30
2022-10-15T05:39:51.211Z,4.20
2022-10-15T05:42:17.902Z,4.65
2022-10-15T05:44:44.376Z,3.60
2022-10-15T05:47:12.453Z,4.38
2022-10-15T05:49:39.191Z,5.28
2022-10-15T05:52:05.655Z,8.27
2022-10-15T05:54:32.423Z,5.18
2022-10-15T05:56:59.173Z,3.45
2022-10-15T05:59:25.610Z,5.55
2022-10-15T06:01:52.139Z,4.10
2022-10-15T06:04:18.646Z,6.10
2022-10-15T06:06:45.112Z,6.47
2022-10-15T06:09:11.578Z,3.58
2022-10-15T06:11:38.084Z,5.28
2022-10-15T06:14:04.583Z,3.53
2022-10-15T06:16:31.016Z,4.32
2022-10-15T06:18:57.466Z,2.80
2022-10-15T06:21:24.021Z,4.95
2022-10-15T06:23:50.618Z,5.80
2022-10-15T06:26:17.122Z,3.85
2022-10-15T06:28:43.618Z,3.40
2022-10-15T06:31:10.434Z,3.63
2022-10-15T06:33:36.937Z,3.40
2022-10-15T06:36:04.816Z,3.53
2022-10-15T06:38:31.323Z,3.95
2022-10-15T06:40:57.859Z,5.03
2022-10-15T06:43:24.768Z,7.60
2022-10-15T06:45:51.436Z,3.67
2022-10-15T06:48:18.467Z,5.53
2022-10-15T06:50:45.064Z,2.60
2022-10-15T06:53:11.574Z,6.00
2022-10-15T06:55:39.645Z,4.47
2022-10-15T06:58:06.271Z,2.45
2022-10-15T07:00:32.738Z,3.85
2022-10-15T07:03:03.370Z,3.72
2022-10-15T07:05:29.853Z,2.38
2022-10-15T07:07:56.736Z,2.28
2022-10-15T07:10:23.425Z,2.75
2022-10-15T07:12:49.982Z,3.38
2022-10-15T07:15:16.984Z,2.50
2022-10-15T07:17:56.829Z,5.25
2022-10-15T07:20:24.569Z,3.13
2022-10-15T07:22:52.112Z,5.68
2022-10-15T07:25:18.874Z,3.45
2022-10-15T07:27:45.385Z,3.30
2022-10-15T07:30:12.011Z,1.90
2022-10-15T07:32:38.638Z,2.80
2022-10-15T07:35:05.384Z,3.10
2022-10-15T07:37:31.941Z,2.30
2022-10-15T07:39:58.579Z,2.88
2022-10-15T07:42:25.071Z,3.63
2022-10-15T07:44:51.617Z,3.08
2022-10-15T07:47:18.092Z,3.85
2022-10-15T07:49:44.580Z,5.90
2022-10-15T07:52:11.182Z,2.60
2022-10-15T07:54:37.855Z,2.88
2022-10-15T07:57:06.970Z,2.80
2022-10-15T07:59:34.070Z,3.33
2022-10-15T08:02:00.550Z,2.13
2022-10-15T08:04:27.041Z,1.65
2022-10-15T08:06:53.554Z,2.42
2022-10-15T08:09:20.230Z,2.22
2022-10-15T08:11:46.653Z,3.72
2022-10-15T08:14:13.170Z,2.40
2022-10-15T08:16:39.627Z,5.70
2022-10-15T08:19:06.158Z,2.13
2022-10-15T08:21:32.651Z,3.83
2022-10-15T08:24:00.773Z,1.95
2022-10-15T08:26:27.406Z,3.20
2022-10-15T08:28:54.002Z,3.05
2022-10-15T08:31:20.475Z,2.50
2022-10-15T08:33:46.987Z,3.47
2022-10-15T08:36:13.551Z,2.15
2022-10-15T08:38:40.012Z,2.47
2022-10-15T08:41:14.235Z,2.58
2022-10-15T08:43:42.269Z,2.03
2022-10-15T08:46:14.031Z,2.40
2022-10-15T08:48:46.063Z,3.05
2022-10-15T08:51:14.706Z,4.75
2022-10-15T08:53:45.070Z,3.72
2022-10-15T08:56:32.212Z,3.35
2022-10-15T08:59:04.792Z,3.15
2022-10-15T09:02:03.933Z,3.22
2022-10-15T09:04:38.743Z,2.53
2022-10-15T09:07:09.381Z,3.58
2022-10-15T09:09:48.735Z,5.57
2022-10-15T09:12:42.238Z,2.40
2022-10-15T09:15:13.255Z,1.80
2022-10-15T09:17:39.860Z,2.60
2022-10-15T09:20:07.951Z,2.33
2022-10-15T09:22:35.139Z,2.13
2022-10-15T09:25:14.643Z,1.40
2022-10-15T09:27:41.315Z,2.13
2022-10-15T09:30:13.959Z,2.05
2022-10-15T09:32:54.204Z,1.83
2022-10-15T09:35:47.451Z,1.67
2022-10-15T09:38:27.225Z,3.15
2022-10-15T09:41:16.549Z,1.80
2022-10-15T09:43:46.112Z,1.77
2022-10-15T09:46:12.840Z,1.75
2022-10-15T09:48:52.539Z,1.75
2022-10-15T09:51:32.675Z,2.63
2022-10-15T09:54:17.146Z,1.05
2022-10-15T09:56:47.232Z,1.30
2022-10-15T09:59:17.822Z,1.65
2022-10-15T10:02:13.516Z,1.25
2022-10-15T10:04:40.058Z,1.45
2022-10-15T10:07:10.038Z,1.42
2022-10-15T10:09:38.192Z,3.40
2022-10-15T10:12:06.487Z,1.23
2022-10-15T10:14:32.911Z,0.98
2022-10-15T10:17:06.836Z,2.00
2022-10-15T10:19:33.369Z,1.20
2022-10-15T10:22:26.425Z,1.95
2022-10-15T10:24:53.048Z,2.40
2022-10-15T10:27:22.659Z,1.70
2022-10-15T10:29:51.783Z,3.38
2022-10-15T10:32:23.605Z,1.30
2022-10-15T10:34:52.849Z,1.48
2022-10-15T10:37:20.054Z,0.80
2022-10-15T10:39:51.905Z,1.45
2022-10-15T10:42:19.539Z,1.23
2022-10-15T10:44:47.104Z,1.73
2022-10-15T10:47:18.196Z,0.93
2022-10-15T10:49:47.806Z,0.73
2022-10-15T10:52:30.236Z,0.70
2022-10-15T10:54:56.702Z,1.02
2022-10-15T10:57:28.070Z,0.60
2022-10-15T10:59:56.365Z,1.42
2022-10-15T11:02:23.021Z,0.73
2022-10-15T11:04:49.468Z,1.02
2022-10-15T11:07:27.973Z,2.05
2022-10-15T11:10:13.687Z,1.15
2022-10-15T11:12:40.292Z,3.20
2022-10-15T11:15:09.916Z,1.08
2022-10-15T11:17:44.500Z,1.42
2022-10-15T11:20:41.199Z,0.80
2022-10-15T11:23:14.879Z,1.50
2022-10-15T11:25:44.312Z,1.77
2022-10-15T11:28:17.329Z,2.00
2022-10-15T11:31:19.248Z,0.70
2022-10-15T11:33:51.478Z,1.17
2022-10-15T11:36:17.864Z,1.40
2022-10-15T11:38:56.465Z,1.58
2022-10-15T11:41:23.005Z,0.93
2022-10-15T11:44:06.873Z,0.65
2022-10-15T11:46:50.948Z,3.08
2022-10-15T11:49:26.500Z,1.60
2022-10-15T11:52:15.046Z,1.80
2022-10-15T11:55:01.714Z,1.20
2022-10-15T11:57:29.782Z,0.50
2022-10-15T11:59:58.726Z,0.47
2022-10-15T12:02:38.330Z,1.95
2022-10-15T12:05:31.183Z,0.40
2022-10-15T12:07:58.001Z,1.65
2022-10-15T12:10:36.594Z,0.50
2022-10-15T12:13:12.922Z,1.10
2022-10-15T12:15:53.658Z,2.03
2022-10-15T12:18:28.630Z,1.17
2022-10-15T12:20:55.832Z,0.40
2022-10-15T12:23:41.671Z,0.68
2022-10-15T12:26:28.204Z,2.03
2022-10-15T12:28:58.395Z,0.88
2022-10-15T12:31:43.134Z,0.82
2022-10-15T12:34:21.912Z,1.35
2022-10-15T12:36:59.035Z,1.25
2022-10-15T12:39:51.813Z,2.78
2022-10-15T12:42:44.341Z,1.85
2022-10-15T12:45:20.763Z,0.85
2022-10-15T12:47:50.087Z,0.57
2022-10-15T12:50:26.600Z,0.40
2022-10-15T12:53:03.604Z,1.95
2022-10-15T12:55:30.117Z,1.23
2022-10-15T12:57:58.350Z,1.02
2022-10-15T13:00:24.815Z,0.50
2022-10-15T13:02:51.871Z,0.52
2022-10-15T13:05:24.227Z,0.93
2022-10-15T13:07:51.791Z,0.88
2022-10-15T13:10:20.791Z,1.08
2022-10-15T13:12:51.362Z,0.80
2022-10-15T13:15:25.477Z,2.92
2022-10-15T13:17:52.804Z,0.68
2022-10-15T13:20:28.222Z,2.17
2022-10-15T13:23:18.474Z,1.05
2022-10-15T13:25:54.407Z,0.77
2022-10-15T13:28:47.089Z,1.30
2022-10-15T13:31:27.542Z,0.88
2022-10-15T13:34:19.996Z,0.63
2022-10-15T13:36:46.497Z,0.73
2022-10-15T13:39:24.913Z,2.47
2022-10-15T13:41:51.730Z,1.10
2022-10-15T13:44:24.922Z,2.20
2022-10-15T13:46:51.463Z,1.05
2022-10-15T13:49:18.368Z,0.95
2022-10-15T13:51:46.032Z,0.85
2022-10-15T13:54:16.600Z,2.55
2022-10-15T13:56:47.913Z,1.17
2022-10-15T13:59:18.234Z,0.40
2022-10-15T14:01:49.688Z,1.20
2022-10-15T14:04:21.208Z,2.38
2022-10-15T14:06:57.091Z,2.05
2022-10-15T14:09:27.157Z,1.90
2022-10-15T14:11:54.114Z,1.45
2022-10-15T14:14:35.984Z,0.70
2022-10-15T14:17:07.043Z,0.88
2022-10-15T14:19:35.554Z,1.45
2022-10-15T14:22:02.487Z,3.13
2022-10-15T14:24:34.126Z,0.43
2022-10-15T14:27:08.193Z,0.45
2022-10-15T14:29:39.203Z,0.52
2022-10-15T14:32:44.050Z,0.60
2022-10-15T14:35:24.074Z,1.42
2022-10-15T14:38:04.298Z,1.58
2022-10-15T14:40:30.928Z,1.70
2022-10-15T14:43:06.638Z,0.82
2022-10-15T14:45:41.367Z,1.08
2022-10-15T14:48:09.802Z,0.52
2022-10-15T14:50:40.811Z,2.85
2022-10-15T14:53:10.079Z,0.90
2022-10-15T14:55:40.331Z,0.50
2022-10-15T14:58:10.864Z,2.75
2022-10-15T15:00:40.456Z,2.50
2022-10-15T15:03:07.354Z,0.60
2022-10-15T15:05:50.728Z,0.60
2022-10-15T15:08:17.161Z,1.90
2022-10-15T15:10:44.163Z,2.05
2022-10-15T15:13:11.892Z,1.27
2022-10-15T15:15:40.241Z,1.35
2022-10-15T15:18:08.527Z,3.78
2022-10-15T15:20:35.054Z,0.75
2022-10-15T15:23:01.519Z,1.88
2022-10-15T15:25:33.739Z,1.70
2022-10-15T15:28:00.658Z,3.42
2022-10-15T15:30:29.402Z,5.22
2022-10-15T15:32:55.923Z,1.23
2022-10-15T15:35:25.180Z,2.05
2022-10-15T15:37:52.178Z,0.40
2022-10-15T15:40:19.048Z,0.40
2022-10-15T15:42:47.035Z,0.73
2022-10-15T15:45:39.573Z,0.60
2022-10-15T15:48:06.386Z,0.52
2022-10-15T15:50:33.388Z,3.15
2022-10-15T15:52:59.864Z,0.40
2022-10-15T15:55:26.420Z,1.85
2022-10-15T15:57:52.924Z,1.55
2022-10-15T16:00:19.474Z,1.13
2022-10-15T16:02:46.319Z,2.13
2022-10-15T16:05:13.736Z,3.30
2022-10-15T16:07:40.264Z,2.10
2022-10-15T16:10:09.512Z,1.10
2022-10-15T16:12:36.063Z,0.70
2022-10-15T16:15:02.500Z,1.52
2022-10-15T16:17:29.014Z,1.63
2022-10-15T16:19:55.470Z,4.85
2022-10-15T16:22:21.930Z,3.90
2022-10-15T16:24:48.421Z,0.73
2022-10-15T16:27:14.878Z,1.15
2022-10-15T16:29:41.337Z,2.95
2022-10-15T16:32:07.884Z,2.80
2022-10-15T16:34:34.381Z,2.28
2022-10-15T16:37:00.806Z,2.08
2022-10-15T16:39:27.415Z,1.63
2022-10-15T16:41:53.914Z,1.55
2022-10-15T16:44:20.527Z,1.85
2022-10-15T16:46:46.959Z,1.88
2022-10-15T16:49:13.455Z,0.70
2022-10-15T16:51:42.793Z,0.65
2022-10-15T16:54:12.527Z,1.02
2022-10-15T16:56:39.148Z,3.28
2022-10-15T16:59:05.676Z,2.30
2022-10-15T17:01:32.255Z,1.70
2022-10-15T17:03:59.055Z,1.13
2022-10-15T17:06:28.205Z,4.57
2022-10-15T17:08:55.617Z,3.28
2022-10-15T17:11:33.312Z,2.60
2022-10-15T17:14:00.491Z,2.95
2022-10-15T17:16:28.120Z,2.10
2022-10-15T17:18:55.480Z,2.50
2022-10-15T17:21:26.251Z,1.67
2022-10-15T17:23:54.494Z,1.50
2022-10-15T17:26:22.254Z,1.10
2022-10-15T17:28:49.554Z,2.20
2022-10-15T17:31:17.638Z,8.48
2022-10-15T17:33:44.663Z,7.78
2022-10-15T17:36:11.336Z,2.70
2022-10-15T17:38:37.973Z,2.17
2022-10-15T17:41:08.644Z,2.30
2022-10-15T17:43:39.245Z,2.05
2022-10-15T17:46:14.267Z,1.42
2022-10-15T17:48:40.751Z,1.45
2022-10-15T17:51:07.733Z,2.15
2022-10-15T17:53:34.347Z,3.00
2022-10-15T17:56:09.202Z,2.53
2022-10-15T17:58:36.050Z,2.97
2022-10-15T18:01:02.515Z,3.50
2022-10-15T18:03:28.934Z,2.22
2022-10-15T18:05:55.486Z,5.90
2022-10-15T18:08:21.961Z,3.45
2022-10-15T18:10:52.423Z,4.88
2022-10-15T18:13:19.652Z,6.82
2022-10-15T18:15:47.098Z,4.57
2022-10-15T18:18:13.590Z,4.05
2022-10-15T18:20:41.391Z,4.55
2022-10-15T18:23:08.186Z,5.07
2022-10-15T18:25:34.717Z,3.47
2022-10-15T18:28:01.424Z,3.25
2022-10-15T18:30:27.866Z,9.57
2022-10-15T18:32:57.278Z,7.88
2022-10-15T18:35:25.426Z,3.67
2022-10-15T18:37:51.860Z,4.90
2022-10-15T18:40:18.298Z,3.47
2022-10-15T18:42:47.677Z,5.75
2022-10-15T18:45:14.489Z,5.85
2022-10-15T18:47:40.902Z,5.35
2022-10-15T18:50:07.818Z,6.80
2022-10-15T18:52:39.936Z,7.97
2022-10-15T18:55:07.310Z,8.80
2022-10-15T18:57:34.867Z,7.00
2022-10-15T19:00:01.376Z,7.95
2022-10-15T19:02:28.125Z,6.60
2022-10-15T19:04:54.778Z,9.40
2022-10-15T19:07:21.211Z,13.52
2022-10-15T19:09:47.641Z,6.80
2022-10-15T19:12:14.175Z,11.02
2022-10-15T19:14:40.638Z,12.45
2022-10-15T19:17:07.059Z,8.68
2022-10-15T19:19:33.647Z,5.57
2022-10-15T19:22:00.094Z,8.07
2022-10-15T19:24:26.571Z,8.02
2022-10-15T19:26:53.277Z,9.68
2022-10-15T19:29:20.223Z,10.35
2022-10-15T19:31:47.290Z,8.52
2022-10-15T19:34:14.294Z,11.23
2022-10-15T19:36:42.779Z,7.63
2022-10-15T19:39:13.226Z,8.35
2022-10-15T19:41:40.738Z,10.68
2022-10-15T19:44:08.346Z,11.80
2022-10-15T19:49:19.728Z,16.38
2022-10-15T19:51:49.503Z,13.23
2022-10-15T19:54:16.442Z,18.73
2022-10-15T19:56:42.978Z,13.05
2022-10-15T19:59:10.188Z,18.67
2022-10-15T20:01:36.768Z,17.73
2022-10-15T20:04:06.210Z,17.00
2022-10-15T20:06:34.748Z,20.63
2022-10-15T20:09:02.167Z,18.88
2022-10-15T20:11:28.778Z,22.65
2022-10-15T20:13:55.366Z,21.50
2022-10-15T20:16:23.290Z,27.77
2022-10-15T20:18:50.715Z,22.17
2022-10-15T20:21:17.568Z,28.27
2022-10-15T20:23:44.638Z,29.42
2022-10-15T20:26:12.391Z,30.67
2022-10-15T20:28:39.940Z,28.55
2022-10-15T20:31:07.095Z,29.98
2022-10-15T20:33:33.672Z,31.40
2022-10-15T20:36:04.240Z,29.98
2022-10-15T20:38:30.762Z,33.13
2022-10-15T20:40:57.277Z,30.83
2022-10-15T20:43:24.534Z,34.75
2022-10-15T20:45:51.161Z,31.52
2022-10-15T20:48:20.197Z,28.35
2022-10-15T20:50:47.116Z,26.08
2022-10-15T20:53:13.741Z,26.88
2022-10-15T20:55:40.599Z,26.60
2022-10-15T20:58:07.421Z,28.08
2022-10-15T21:00:33.977Z,26.38
2022-10-15T21:03:00.448Z,29.73
2022-10-15T21:05:26.941Z,26.63
2022-10-15T21:07:56.716Z,25.75
2022-10-15T21:10:23.160Z,31.77
2022-10-15T21:12:49.603Z,20.98
2022-10-15T21:15:16.168Z,24.55
2022-10-15T21:17:42.597Z,22.85
2022-10-15T21:20:09.216Z,23.23
2022-10-15T21:22:35.713Z,20.35
2022-10-15T21:25:02.216Z,20.70
2022-10-15T21:27:28.822Z,23.83
2022-10-15T21:29:55.453Z,31.67
2022-10-15T21:32:21.908Z,26.25
2022-10-15T21:34:48.776Z,24.58
2022-10-15T21:37:15.379Z,23.48
2022-10-15T21:39:41.798Z,23.85
2022-10-15T21:42:08.271Z,19.17
2022-10-15T21:44:34.814Z,18.30
2022-10-15T21:47:01.663Z,13.73
2022-10-15T21:49:28.143Z,20.35
2022-10-15T21:51:54.628Z,18.58
2022-10-15T21:54:21.080Z,22.55
2022-10-15T21:56:47.492Z,20.60
2022-10-15T21:59:14.186Z,27.90
2022-10-15T22:01:41.337Z,28.10
2022-10-15T22:04:09.283Z,25.88
2022-10-15T22:06:36.458Z,24.58
2022-10-15T22:09:03.840Z,20.77
2022-10-15T22:11:31.544Z,19.00
2022-10-15T22:13:59.223Z,16.63
2022-10-15T22:16:26.698Z,14.63
2022-10-15T22:18:53.198Z,15.90
2022-10-15T22:21:19.723Z,13.85
2022-10-15T22:23:47.719Z,18.65
2022-10-15T22:26:14.943Z,14.55
2022-10-15T22:28:42.160Z,12.93
2022-10-15T22:31:11.299Z,14.05
2022-10-15T22:33:37.888Z,13.40
2022-10-15T22:36:05.376Z,15.27
2022-10-15T22:38:32.142Z,13.55
2022-10-15T22:40:58.592Z,14.07
2022-10-15T22:43:25.436Z,11.60
2022-10-15T22:45:51.960Z,13.45
2022-10-15T22:48:18.513Z,13.00
2022-10-15T22:50:45.036Z,10.85
2022-10-15T22:53:11.481Z,12.23
2022-10-15T22:55:37.946Z,11.68
2022-10-15T22:58:04.441Z,11.40
2022-10-15T23:00:31.343Z,13.43
2022-10-15T23:02:57.805Z,11.95
2022-10-15T23:05:24.303Z,13.75
2022-10-15T23:07:50.778Z,13.77
2022-10-15T23:10:17.226Z,12.00
2022-10-15T23:12:43.720Z,13.50
2022-10-15T23:15:10.268Z,16.25
2022-10-15T23:17:36.732Z,14.05
2022-10-15T23:20:03.324Z,11.95
2022-10-15T23:22:29.777Z,12.27
2022-10-15T23:24:56.242Z,12.13
2022-10-15T23:27:23.000Z,13.75
2022-10-15T23:29:56.896Z,11.43
2022-10-15T23:32:34.082Z,14.98
2022-10-15T23:35:00.544Z,14.77
2022-10-15T23:37:27.301Z,13.80
2022-10-15T23:39:54.048Z,16.70
2022-10-15T23:42:20.520Z,12.57
2022-10-15T23:44:46.967Z,11.40
2022-10-15T23:47:13.493Z,15.63
2022-10-15T23:49:39.937Z,12.02
2022-10-15T23:52:06.467Z,14.95
2022-10-15T23:54:33.008Z,12.15
2022-10-15T23:57:01.397Z,15.85
2022-10-15T23:59:27.942Z,14.45
